sensor_id;sensor_type;location;lat;lon;timestamp;temperature;humidity
52103;DHT22;38101;53.126;6.878;2022-12-11T00:01:56;-0.10;99.90
52103;DHT22;38101;53.126;6.878;2022-12-11T00:04:22;-0.10;99.90
52103;DHT22;38101;53.126;6.878;2022-12-11T00:06:48;-0.10;99.90
52103;DHT22;38101;53.126;6.878;2022-12-11T00:09:19;0.00;99.90
52103;DHT22;38101;53.126;6.878;2022-12-11T00:11:45;-0.10;99.90
52103;DHT22;38101;53.126;6.878;2022-12-11T00:14:12;-0.20;99.90
52103;DHT22;38101;53.126;6.878;2022-12-11T00:16:37;-0.20;99.90
52103;DHT22;38101;53.126;6.878;2022-12-11T00:19:04;-0.20;99.90
52103;DHT22;38101;53.126;6.878;2022-12-11T00:21:30;-0.20;99.90
52103;DHT22;38101;53.126;6.878;2022-12-11T00:23:55;-0.20;99.90
52103;DHT22;38101;53.126;6.878;2022-12-11T00:26:21;-0.20;99.90
52103;DHT22;38101;53.126;6.878;2022-12-11T00:28:50;-0.20;99.90
52103;DHT22;38101;53.126;6.878;2022-12-11T00:31:17;-0.20;99.90
52103;DHT22;38101;53.126;6.878;2022-12-11T00:33:44;-0.20;99.90
52103;DHT22;38101;53.126;6.878;2022-12-11T00:36:21;-0.20;99.90
52103;DHT22;38101;53.126;6.878;2022-12-11T00:38:48;-0.20;99.90
52103;DHT22;38101;53.126;6.878;2022-12-11T00:41:15;-0.20;99.90
52103;DHT22;38101;53.126;6.878;2022-12-11T00:43:41;-0.20;99.90
52103;DHT22;38101;53.126;6.878;2022-12-11T00:46:06;-0.20;99.90
52103;DHT22;38101;53.126;6.878;2022-12-11T00:48:32;-0.20;99.90
52103;DHT22;38101;53.126;6.878;2022-12-11T00:50:58;-0.20;99.90
52103;DHT22;38101;53.126;6.878;2022-12-11T00:53:24;-0.20;99.90
52103;DHT22;38101;53.126;6.878;2022-12-11T00:55:50;-0.20;99.90
52103;DHT22;38101;53.126;6.878;2022-12-11T00:58:16;-0.20;99.90
52103;DHT22;38101;53.126;6.878;2022-12-11T01:00:42;-0.20;99.90
52103;DHT22;38101;53.126;6.878;2022-12-11T01:03:08;-0.20;99.90
52103;DHT22;38101;53.126;6.878;2022-12-11T01:05:34;-0.20;99.90
52103;DHT22;38101;53.126;6.878;2022-12-11T01:08:00;-0.20;99.90
52103;DHT22;38101;53.126;6.878;2022-12-11T01:10:26;-0.20;99.90
52103;DHT22;38101;53.126;6.878;2022-12-11T01:12:59;-0.10;99.90
52103;DHT22;38101;53.126;6.878;2022-12-11T01:15:36;-0.10;99.90
52103;DHT22;38101;53.126;6.878;2022-12-11T01:18:02;-0.10;99.90
52103;DHT22;38101;53.126;6.878;2022-12-11T01:20:28;0.00;99.90
52103;DHT22;38101;53.126;6.878;2022-12-11T01:22:56;0.00;99.90
52103;DHT22;38101;53.126;6.878;2022-12-11T01:25:22;0.00;99.90
52103;DHT22;38101;53.126;6.878;2022-12-11T01:27:52;0.00;99.90
52103;DHT22;38101;53.126;6.878;2022-12-11T01:30:20;0.00;99.90
52103;DHT22;38101;53.126;6.878;2022-12-11T01:32:47;0.00;99.90
52103;DHT22;38101;53.126;6.878;2022-12-11T01:35:14;0.00;99.90
52103;DHT22;38101;53.126;6.878;2022-12-11T01:37:40;0.00;99.90
52103;DHT22;38101;53.126;6.878;2022-12-11T01:40:07;0.10;99.90
52103;DHT22;38101;53.126;6.878;2022-12-11T01:42:33;0.10;99.90
52103;DHT22;38101;53.126;6.878;2022-12-11T01:47:48;0.10;99.90
52103;DHT22;38101;53.126;6.878;2022-12-11T01:50:15;0.10;99.90
52103;DHT22;38101;53.126;6.878;2022-12-11T01:52:42;0.10;99.90
52103;DHT22;38101;53.126;6.878;2022-12-11T01:55:09;0.10;99.90
52103;DHT22;38101;53.126;6.878;2022-12-11T01:57:40;0.10;99.90
52103;DHT22;38101;53.126;6.878;2022-12-11T02:00:07;0.10;99.90
52103;DHT22;38101;53.126;6.878;2022-12-11T02:02:33;0.10;99.90
52103;DHT22;38101;53.126;6.878;2022-12-11T02:05:01;0.10;99.90
52103;DHT22;38101;53.126;6.878;2022-12-11T02:07:29;0.10;99.90
52103;DHT22;38101;53.126;6.878;2022-12-11T02:09:57;0.10;99.90
52103;DHT22;38101;53.126;6.878;2022-12-11T02:22:52;0.20;99.90
52103;DHT22;38101;53.126;6.878;2022-12-11T02:33:40;0.30;99.90
52103;DHT22;38101;53.126;6.878;2022-12-11T02:36:08;0.30;99.90
52103;DHT22;38101;53.126;6.878;2022-12-11T02:38:38;0.30;99.90
52103;DHT22;38101;53.126;6.878;2022-12-11T02:41:07;0.30;99.90
52103;DHT22;38101;53.126;6.878;2022-12-11T02:43:35;0.30;99.90
52103;DHT22;38101;53.126;6.878;2022-12-11T02:46:03;0.30;99.90
52103;DHT22;38101;53.126;6.878;2022-12-11T02:48:31;0.40;99.90
52103;DHT22;38101;53.126;6.878;2022-12-11T02:50:59;0.40;99.90
52103;DHT22;38101;53.126;6.878;2022-12-11T02:53:27;0.40;99.90
52103;DHT22;38101;53.126;6.878;2022-12-11T02:56:09;0.40;99.90
52103;DHT22;38101;53.126;6.878;2022-12-11T02:58:41;0.50;99.90
52103;DHT22;38101;53.126;6.878;2022-12-11T03:01:10;0.40;99.90
52103;DHT22;38101;53.126;6.878;2022-12-11T03:03:36;0.50;99.90
52103;DHT22;38101;53.126;6.878;2022-12-11T03:06:02;0.40;99.90
52103;DHT22;38101;53.126;6.878;2022-12-11T03:08:29;0.50;99.90
52103;DHT22;38101;53.126;6.878;2022-12-11T03:10:54;0.50;99.90
52103;DHT22;38101;53.126;6.878;2022-12-11T03:13:21;0.50;99.90
52103;DHT22;38101;53.126;6.878;2022-12-11T03:18:43;0.50;99.90
52103;DHT22;38101;53.126;6.878;2022-12-11T03:21:14;0.50;99.90
52103;DHT22;38101;53.126;6.878;2022-12-11T03:26:12;0.50;99.90
52103;DHT22;38101;53.126;6.878;2022-12-11T03:31:31;0.50;99.90
52103;DHT22;38101;53.126;6.878;2022-12-11T03:34:03;0.60;99.90
52103;DHT22;38101;53.126;6.878;2022-12-11T03:36:35;0.60;99.90
52103;DHT22;38101;53.126;6.878;2022-12-11T03:39:08;0.50;99.90
52103;DHT22;38101;53.126;6.878;2022-12-11T03:41:37;0.60;99.90
52103;DHT22;38101;53.126;6.878;2022-12-11T03:44:04;0.60;99.90
52103;DHT22;38101;53.126;6.878;2022-12-11T03:46:33;0.50;99.90
52103;DHT22;38101;53.126;6.878;2022-12-11T03:49:04;0.60;99.90
52103;DHT22;38101;53.126;6.878;2022-12-11T03:51:33;0.60;99.90
52103;DHT22;38101;53.126;6.878;2022-12-11T03:53:59;0.50;99.90
52103;DHT22;38101;53.126;6.878;2022-12-11T03:56:27;0.60;99.90
52103;DHT22;38101;53.126;6.878;2022-12-11T03:58:54;0.60;99.90
52103;DHT22;38101;53.126;6.878;2022-12-11T04:01:20;0.60;99.90
52103;DHT22;38101;53.126;6.878;2022-12-11T04:03:45;0.60;99.90
52103;DHT22;38101;53.126;6.878;2022-12-11T04:06:11;0.60;99.90
52103;DHT22;38101;53.126;6.878;2022-12-11T04:08:37;0.60;99.90
52103;DHT22;38101;53.126;6.878;2022-12-11T04:11:03;0.60;99.90
52103;DHT22;38101;53.126;6.878;2022-12-11T04:13:47;0.60;99.90
52103;DHT22;38101;53.126;6.878;2022-12-11T04:16:36;0.60;99.90
52103;DHT22;38101;53.126;6.878;2022-12-11T04:19:02;0.60;99.90
52103;DHT22;38101;53.126;6.878;2022-12-11T04:21:47;0.60;99.90
52103;DHT22;38101;53.126;6.878;2022-12-11T04:24:31;0.70;99.90
52103;DHT22;38101;53.126;6.878;2022-12-11T04:26:56;0.60;99.90
52103;DHT22;38101;53.126;6.878;2022-12-11T04:29:22;0.70;99.90
52103;DHT22;38101;53.126;6.878;2022-12-11T04:31:48;0.70;99.90
52103;DHT22;38101;53.126;6.878;2022-12-11T04:34:15;0.70;99.90
52103;DHT22;38101;53.126;6.878;2022-12-11T04:36:40;0.70;99.90
52103;DHT22;38101;53.126;6.878;2022-12-11T04:39:06;0.70;99.90
52103;DHT22;38101;53.126;6.878;2022-12-11T04:41:32;0.70;99.90
52103;DHT22;38101;53.126;6.878;2022-12-11T04:43:58;0.70;99.90
52103;DHT22;38101;53.126;6.878;2022-12-11T04:46:24;0.70;99.90
52103;DHT22;38101;53.126;6.878;2022-12-11T04:48:51;0.70;99.90
52103;DHT22;38101;53.126;6.878;2022-12-11T04:51:17;0.70;99.90
52103;DHT22;38101;53.126;6.878;2022-12-11T04:53:43;0.70;99.90
52103;DHT22;38101;53.126;6.878;2022-12-11T04:56:12;0.70;99.90
52103;DHT22;38101;53.126;6.878;2022-12-11T04:58:39;0.70;99.90
52103;DHT22;38101;53.126;6.878;2022-12-11T05:01:19;0.70;99.90
52103;DHT22;38101;53.126;6.878;2022-12-11T05:03:45;0.70;99.90
52103;DHT22;38101;53.126;6.878;2022-12-11T05:06:11;0.70;99.90
52103;DHT22;38101;53.126;6.878;2022-12-11T05:08:39;0.70;99.90
52103;DHT22;38101;53.126;6.878;2022-12-11T05:11:08;0.70;99.90
52103;DHT22;38101;53.126;6.878;2022-12-11T05:13:34;0.70;99.90
52103;DHT22;38101;53.126;6.878;2022-12-11T05:16:03;0.70;99.90
52103;DHT22;38101;53.126;6.878;2022-12-11T05:18:29;0.70;99.90
52103;DHT22;38101;53.126;6.878;2022-12-11T05:21:00;0.70;99.90
52103;DHT22;38101;53.126;6.878;2022-12-11T05:23:26;0.70;99.90
52103;DHT22;38101;53.126;6.878;2022-12-11T05:26:03;0.80;99.90
52103;DHT22;38101;53.126;6.878;2022-12-11T05:28:31;0.80;99.90
52103;DHT22;38101;53.126;6.878;2022-12-11T05:30:59;0.80;99.90
52103;DHT22;38101;53.126;6.878;2022-12-11T05:33:25;0.80;99.90
52103;DHT22;38101;53.126;6.878;2022-12-11T05:35:51;0.80;99.90
52103;DHT22;38101;53.126;6.878;2022-12-11T05:38:17;0.80;99.90
52103;DHT22;38101;53.126;6.878;2022-12-11T05:40:43;0.80;99.90
52103;DHT22;38101;53.126;6.878;2022-12-11T05:43:09;0.80;99.90
52103;DHT22;38101;53.126;6.878;2022-12-11T05:45:35;0.80;99.90
52103;DHT22;38101;53.126;6.878;2022-12-11T05:48:00;0.80;99.90
52103;DHT22;38101;53.126;6.878;2022-12-11T05:50:26;0.80;99.90
52103;DHT22;38101;53.126;6.878;2022-12-11T05:52:52;0.80;99.90
52103;DHT22;38101;53.126;6.878;2022-12-11T05:55:17;0.80;99.90
52103;DHT22;38101;53.126;6.878;2022-12-11T05:57:43;0.80;99.90
52103;DHT22;38101;53.126;6.878;2022-12-11T06:00:11;0.80;99.90
52103;DHT22;38101;53.126;6.878;2022-12-11T06:02:37;0.80;99.90
52103;DHT22;38101;53.126;6.878;2022-12-11T06:05:03;0.90;99.90
52103;DHT22;38101;53.126;6.878;2022-12-11T06:07:29;0.80;99.90
52103;DHT22;38101;53.126;6.878;2022-12-11T06:09:54;0.90;99.90
52103;DHT22;38101;53.126;6.878;2022-12-11T06:12:20;0.90;99.90
52103;DHT22;38101;53.126;6.878;2022-12-11T06:14:46;0.90;99.90
52103;DHT22;38101;53.126;6.878;2022-12-11T06:17:11;0.80;99.90
52103;DHT22;38101;53.126;6.878;2022-12-11T06:19:37;0.80;99.90
52103;DHT22;38101;53.126;6.878;2022-12-11T06:22:03;0.80;99.90
52103;DHT22;38101;53.126;6.878;2022-12-11T06:24:29;0.80;99.90
52103;DHT22;38101;53.126;6.878;2022-12-11T06:26:55;0.80;99.90
52103;DHT22;38101;53.126;6.878;2022-12-11T06:29:20;0.80;99.90
52103;DHT22;38101;53.126;6.878;2022-12-11T06:31:46;0.80;99.90
52103;DHT22;38101;53.126;6.878;2022-12-11T06:34:12;0.80;99.90
52103;DHT22;38101;53.126;6.878;2022-12-11T06:36:38;0.80;99.90
52103;DHT22;38101;53.126;6.878;2022-12-11T06:39:04;0.80;99.90
52103;DHT22;38101;53.126;6.878;2022-12-11T06:41:30;0.80;99.90
52103;DHT22;38101;53.126;6.878;2022-12-11T06:43:55;0.80;99.90
52103;DHT22;38101;53.126;6.878;2022-12-11T06:46:21;0.90;99.90
52103;DHT22;38101;53.126;6.878;2022-12-11T06:48:48;0.80;99.90
52103;DHT22;38101;53.126;6.878;2022-12-11T06:51:16;0.80;99.90
52103;DHT22;38101;53.126;6.878;2022-12-11T06:53:42;0.80;99.90
52103;DHT22;38101;53.126;6.878;2022-12-11T06:56:11;0.90;99.90
52103;DHT22;38101;53.126;6.878;2022-12-11T06:58:38;0.90;99.90
52103;DHT22;38101;53.126;6.878;2022-12-11T07:01:13;0.90;99.90
52103;DHT22;38101;53.126;6.878;2022-12-11T07:03:39;0.90;99.90
52103;DHT22;38101;53.126;6.878;2022-12-11T07:06:05;0.90;99.90
52103;DHT22;38101;53.126;6.878;2022-12-11T07:08:31;0.90;99.90
52103;DHT22;38101;53.126;6.878;2022-12-11T07:11:08;1.00;99.90
52103;DHT22;38101;53.126;6.878;2022-12-11T07:13:34;1.00;99.90
52103;DHT22;38101;53.126;6.878;2022-12-11T07:16:01;1.00;99.90
52103;DHT22;38101;53.126;6.878;2022-12-11T07:18:30;1.00;99.90
52103;DHT22;38101;53.126;6.878;2022-12-11T07:20:58;1.00;99.90
52103;DHT22;38101;53.126;6.878;2022-12-11T07:23:28;1.00;99.90
52103;DHT22;38101;53.126;6.878;2022-12-11T07:25:54;1.00;99.90
52103;DHT22;38101;53.126;6.878;2022-12-11T07:28:20;1.00;99.90
52103;DHT22;38101;53.126;6.878;2022-12-11T07:30:47;1.00;99.90
52103;DHT22;38101;53.126;6.878;2022-12-11T07:33:13;1.00;99.90
52103;DHT22;38101;53.126;6.878;2022-12-11T07:35:39;1.00;99.90
52103;DHT22;38101;53.126;6.878;2022-12-11T07:38:05;1.00;99.90
52103;DHT22;38101;53.126;6.878;2022-12-11T07:40:32;1.00;99.90
52103;DHT22;38101;53.126;6.878;2022-12-11T07:42:58;1.10;99.90
52103;DHT22;38101;53.126;6.878;2022-12-11T07:45:24;1.10;99.90
52103;DHT22;38101;53.126;6.878;2022-12-11T07:47:51;1.00;99.90
52103;DHT22;38101;53.126;6.878;2022-12-11T07:50:17;1.00;99.90
52103;DHT22;38101;53.126;6.878;2022-12-11T07:52:43;1.00;99.90
52103;DHT22;38101;53.126;6.878;2022-12-11T07:55:09;1.10;99.90
52103;DHT22;38101;53.126;6.878;2022-12-11T07:57:35;1.10;99.90
52103;DHT22;38101;53.126;6.878;2022-12-11T08:00:01;1.10;99.90
52103;DHT22;38101;53.126;6.878;2022-12-11T08:02:27;1.10;99.90
52103;DHT22;38101;53.126;6.878;2022-12-11T08:04:52;1.10;99.90
52103;DHT22;38101;53.126;6.878;2022-12-11T08:07:18;1.10;99.90
52103;DHT22;38101;53.126;6.878;2022-12-11T08:09:44;1.10;99.90
52103;DHT22;38101;53.126;6.878;2022-12-11T08:12:09;1.10;99.90
52103;DHT22;38101;53.126;6.878;2022-12-11T08:14:36;1.10;99.90
52103;DHT22;38101;53.126;6.878;2022-12-11T08:17:02;1.10;99.90
52103;DHT22;38101;53.126;6.878;2022-12-11T08:19:27;1.10;99.90
52103;DHT22;38101;53.126;6.878;2022-12-11T08:21:53;1.10;99.90
52103;DHT22;38101;53.126;6.878;2022-12-11T08:24:19;1.10;99.90
52103;DHT22;38101;53.126;6.878;2022-12-11T08:26:46;1.10;99.90
52103;DHT22;38101;53.126;6.878;2022-12-11T08:29:11;1.10;99.90
52103;DHT22;38101;53.126;6.878;2022-12-11T08:31:41;1.20;99.90
52103;DHT22;38101;53.126;6.878;2022-12-11T08:34:06;1.20;99.90
52103;DHT22;38101;53.126;6.878;2022-12-11T08:36:32;1.20;99.90
52103;DHT22;38101;53.126;6.878;2022-12-11T08:38:58;1.20;99.90
52103;DHT22;38101;53.126;6.878;2022-12-11T08:41:27;1.20;99.90
52103;DHT22;38101;53.126;6.878;2022-12-11T08:43:54;1.20;99.90
52103;DHT22;38101;53.126;6.878;2022-12-11T08:46:22;1.20;99.90
52103;DHT22;38101;53.126;6.878;2022-12-11T08:48:48;1.20;99.90
52103;DHT22;38101;53.126;6.878;2022-12-11T08:51:16;1.20;99.90
52103;DHT22;38101;53.126;6.878;2022-12-11T08:53:42;1.20;99.90
52103;DHT22;38101;53.126;6.878;2022-12-11T08:56:11;1.20;99.90
52103;DHT22;38101;53.126;6.878;2022-12-11T08:58:37;1.20;99.90
52103;DHT22;38101;53.126;6.878;2022-12-11T09:01:14;1.20;99.90
52103;DHT22;38101;53.126;6.878;2022-12-11T09:03:41;1.20;99.90
52103;DHT22;38101;53.126;6.878;2022-12-11T09:06:12;1.20;99.90
52103;DHT22;38101;53.126;6.878;2022-12-11T09:08:39;1.20;99.90
52103;DHT22;38101;53.126;6.878;2022-12-11T09:11:11;1.20;99.90
52103;DHT22;38101;53.126;6.878;2022-12-11T09:13:38;1.20;99.90
52103;DHT22;38101;53.126;6.878;2022-12-11T09:16:09;1.20;99.90
52103;DHT22;38101;53.126;6.878;2022-12-11T09:18:37;1.20;99.90
52103;DHT22;38101;53.126;6.878;2022-12-11T09:21:05;1.20;99.90
52103;DHT22;38101;53.126;6.878;2022-12-11T09:23:31;1.20;99.90
52103;DHT22;38101;53.126;6.878;2022-12-11T09:25:57;1.20;99.90
52103;DHT22;38101;53.126;6.878;2022-12-11T09:28:23;1.20;99.90
52103;DHT22;38101;53.126;6.878;2022-12-11T09:30:50;1.30;99.90
52103;DHT22;38101;53.126;6.878;2022-12-11T09:33:16;1.30;99.90
52103;DHT22;38101;53.126;6.878;2022-12-11T09:35:42;1.30;99.90
52103;DHT22;38101;53.126;6.878;2022-12-11T09:38:08;1.30;99.90
52103;DHT22;38101;53.126;6.878;2022-12-11T09:40:40;1.30;99.90
52103;DHT22;38101;53.126;6.878;2022-12-11T09:45:54;1.30;99.90
52103;DHT22;38101;53.126;6.878;2022-12-11T09:48:23;1.30;99.90
52103;DHT22;38101;53.126;6.878;2022-12-11T09:50:53;1.30;99.90
52103;DHT22;38101;53.126;6.878;2022-12-11T09:53:37;1.30;99.90
52103;DHT22;38101;53.126;6.878;2022-12-11T10:06:05;1.30;99.90
52103;DHT22;38101;53.126;6.878;2022-12-11T10:08:20;1.30;99.90
52103;DHT22;38101;53.126;6.878;2022-12-11T10:11:29;1.30;99.90
52103;DHT22;38101;53.126;6.878;2022-12-11T10:14:01;1.30;99.90
52103;DHT22;38101;53.126;6.878;2022-12-11T10:16:34;1.30;99.90
52103;DHT22;38101;53.126;6.878;2022-12-11T10:19:02;1.40;99.90
52103;DHT22;38101;53.126;6.878;2022-12-11T10:21:35;1.40;99.90
52103;DHT22;38101;53.126;6.878;2022-12-11T10:24:03;1.40;99.90
52103;DHT22;38101;53.126;6.878;2022-12-11T10:26:30;1.40;99.90
52103;DHT22;38101;53.126;6.878;2022-12-11T10:29:00;1.30;99.90
52103;DHT22;38101;53.126;6.878;2022-12-11T10:31:47;1.40;99.90
52103;DHT22;38101;53.126;6.878;2022-12-11T10:36:55;1.40;99.90
52103;DHT22;38101;53.126;6.878;2022-12-11T10:39:21;1.40;99.90
52103;DHT22;38101;53.126;6.878;2022-12-11T10:41:49;1.40;99.90
52103;DHT22;38101;53.126;6.878;2022-12-11T10:44:28;1.50;99.90
52103;DHT22;38101;53.126;6.878;2022-12-11T10:47:13;1.40;99.90
52103;DHT22;38101;53.126;6.878;2022-12-11T10:50:00;1.50;99.90
52103;DHT22;38101;53.126;6.878;2022-12-11T10:55:03;1.50;99.90
52103;DHT22;38101;53.126;6.878;2022-12-11T10:57:33;1.50;99.90
52103;DHT22;38101;53.126;6.878;2022-12-11T10:59:59;1.50;99.90
52103;DHT22;38101;53.126;6.878;2022-12-11T11:02:31;1.50;99.90
52103;DHT22;38101;53.126;6.878;2022-12-11T11:05:02;1.50;99.90
52103;DHT22;38101;53.126;6.878;2022-12-11T11:07:34;1.50;99.90
52103;DHT22;38101;53.126;6.878;2022-12-11T11:12:44;1.50;99.90
52103;DHT22;38101;53.126;6.878;2022-12-11T11:15:13;1.50;99.90
52103;DHT22;38101;53.126;6.878;2022-12-11T11:17:50;1.50;99.90
52103;DHT22;38101;53.126;6.878;2022-12-11T11:20:19;1.50;99.90
52103;DHT22;38101;53.126;6.878;2022-12-11T11:22:48;1.50;99.90
52103;DHT22;38101;53.126;6.878;2022-12-11T11:25:23;1.50;99.90
52103;DHT22;38101;53.126;6.878;2022-12-11T11:27:55;1.50;99.90
52103;DHT22;38101;53.126;6.878;2022-12-11T11:30:34;1.50;99.90
52103;DHT22;38101;53.126;6.878;2022-12-11T11:33:16;1.50;99.90
52103;DHT22;38101;53.126;6.878;2022-12-11T11:35:57;1.50;99.90
52103;DHT22;38101;53.126;6.878;2022-12-11T11:41:24;1.60;99.90
52103;DHT22;38101;53.126;6.878;2022-12-11T11:44:05;1.60;99.90
52103;DHT22;38101;53.126;6.878;2022-12-11T11:49:41;1.60;99.90
52103;DHT22;38101;53.126;6.878;2022-12-11T11:58:11;1.60;99.90
52103;DHT22;38101;53.126;6.878;2022-12-11T12:00:38;1.60;99.90
52103;DHT22;38101;53.126;6.878;2022-12-11T12:03:13;1.60;99.90
52103;DHT22;38101;53.126;6.878;2022-12-11T12:05:44;1.60;99.90
52103;DHT22;38101;53.126;6.878;2022-12-11T12:11:16;1.60;99.90
52103;DHT22;38101;53.126;6.878;2022-12-11T12:13:47;1.60;99.90
52103;DHT22;38101;53.126;6.878;2022-12-11T12:16:27;1.60;99.90
52103;DHT22;38101;53.126;6.878;2022-12-11T12:21:49;1.60;99.90
52103;DHT22;38101;53.126;6.878;2022-12-11T12:27:16;1.60;99.90
52103;DHT22;38101;53.126;6.878;2022-12-11T12:32:53;1.60;99.90
52103;DHT22;38101;53.126;6.878;2022-12-11T12:35:49;1.60;99.90
52103;DHT22;38101;53.126;6.878;2022-12-11T12:38:24;1.60;99.90
52103;DHT22;38101;53.126;6.878;2022-12-11T12:41:07;1.60;99.90
52103;DHT22;38101;53.126;6.878;2022-12-11T12:46:36;1.60;99.90
52103;DHT22;38101;53.126;6.878;2022-12-11T12:49:09;1.60;99.90
52103;DHT22;38101;53.126;6.878;2022-12-11T12:51:38;1.60;99.90
52103;DHT22;38101;53.126;6.878;2022-12-11T12:54:06;1.60;99.90
52103;DHT22;38101;53.126;6.878;2022-12-11T12:56:35;1.60;99.90
52103;DHT22;38101;53.126;6.878;2022-12-11T12:59:02;1.60;99.90
52103;DHT22;38101;53.126;6.878;2022-12-11T13:01:29;1.60;99.90
52103;DHT22;38101;53.126;6.878;2022-12-11T13:03:56;1.60;99.90
52103;DHT22;38101;53.126;6.878;2022-12-11T13:06:43;1.60;99.90
52103;DHT22;38101;53.126;6.878;2022-12-11T13:09:22;1.60;99.90
52103;DHT22;38101;53.126;6.878;2022-12-11T13:11:50;1.60;99.90
52103;DHT22;38101;53.126;6.878;2022-12-11T13:16:47;1.60;99.90
52103;DHT22;38101;53.126;6.878;2022-12-11T13:19:26;1.60;99.90
52103;DHT22;38101;53.126;6.878;2022-12-11T13:22:45;1.70;99.90
52103;DHT22;38101;53.126;6.878;2022-12-11T13:24:47;1.60;99.90
52103;DHT22;38101;53.126;6.878;2022-12-11T13:27:38;1.60;99.90
52103;DHT22;38101;53.126;6.878;2022-12-11T13:33:01;1.70;99.90
52103;DHT22;38101;53.126;6.878;2022-12-11T13:35:29;1.70;99.90
52103;DHT22;38101;53.126;6.878;2022-12-11T13:38:19;1.70;99.90
52103;DHT22;38101;53.126;6.878;2022-12-11T13:40:51;1.70;99.90
52103;DHT22;38101;53.126;6.878;2022-12-11T13:43:21;1.70;99.90
52103;DHT22;38101;53.126;6.878;2022-12-11T13:45:57;1.70;99.90
52103;DHT22;38101;53.126;6.878;2022-12-11T13:48:27;1.70;99.90
52103;DHT22;38101;53.126;6.878;2022-12-11T13:50:55;1.60;99.90
52103;DHT22;38101;53.126;6.878;2022-12-11T13:53:22;1.70;99.90
52103;DHT22;38101;53.126;6.878;2022-12-11T13:55:56;1.70;99.90
52103;DHT22;38101;53.126;6.878;2022-12-11T13:58:23;1.70;99.90
52103;DHT22;38101;53.126;6.878;2022-12-11T14:03:30;1.70;99.90
52103;DHT22;38101;53.126;6.878;2022-12-11T14:05:57;1.70;99.90
52103;DHT22;38101;53.126;6.878;2022-12-11T14:08:29;1.70;99.90
52103;DHT22;38101;53.126;6.878;2022-12-11T14:10:56;1.70;99.90
52103;DHT22;38101;53.126;6.878;2022-12-11T14:13:30;1.70;99.90
52103;DHT22;38101;53.126;6.878;2022-12-11T14:15:57;1.70;99.90
52103;DHT22;38101;53.126;6.878;2022-12-11T14:18:26;1.70;99.90
52103;DHT22;38101;53.126;6.878;2022-12-11T14:20:55;1.70;99.90
52103;DHT22;38101;53.126;6.878;2022-12-11T14:23:24;1.70;99.90
52103;DHT22;38101;53.126;6.878;2022-12-11T14:26:03;1.70;99.90
52103;DHT22;38101;53.126;6.878;2022-12-11T14:28:36;1.70;99.90
52103;DHT22;38101;53.126;6.878;2022-12-11T14:31:03;1.70;99.90
52103;DHT22;38101;53.126;6.878;2022-12-11T14:33:33;1.70;99.90
52103;DHT22;38101;53.126;6.878;2022-12-11T14:36:00;1.70;99.90
52103;DHT22;38101;53.126;6.878;2022-12-11T14:38:45;1.70;99.90
52103;DHT22;38101;53.126;6.878;2022-12-11T14:41:26;1.70;99.90
52103;DHT22;38101;53.126;6.878;2022-12-11T14:43:57;1.70;99.90
52103;DHT22;38101;53.126;6.878;2022-12-11T14:49:06;1.70;99.90
52103;DHT22;38101;53.126;6.878;2022-12-11T14:51:39;1.70;99.90
52103;DHT22;38101;53.126;6.878;2022-12-11T14:54:10;1.70;99.90
52103;DHT22;38101;53.126;6.878;2022-12-11T14:56:39;1.70;99.90
52103;DHT22;38101;53.126;6.878;2022-12-11T14:59:06;1.70;99.90
52103;DHT22;38101;53.126;6.878;2022-12-11T15:01:43;1.70;99.90
52103;DHT22;38101;53.126;6.878;2022-12-11T15:06:50;1.70;99.90
52103;DHT22;38101;53.126;6.878;2022-12-11T15:11:57;1.70;99.90
52103;DHT22;38101;53.126;6.878;2022-12-11T15:14:24;1.70;99.90
52103;DHT22;38101;53.126;6.878;2022-12-11T15:16:52;1.70;99.90
52103;DHT22;38101;53.126;6.878;2022-12-11T15:19:27;1.70;99.90
52103;DHT22;38101;53.126;6.878;2022-12-11T15:22:01;1.70;99.90
52103;DHT22;38101;53.126;6.878;2022-12-11T15:24:40;1.70;99.90
52103;DHT22;38101;53.126;6.878;2022-12-11T15:29:47;1.60;99.90
52103;DHT22;38101;53.126;6.878;2022-12-11T15:32:16;1.70;99.90
52103;DHT22;38101;53.126;6.878;2022-12-11T15:34:52;1.70;99.90
52103;DHT22;38101;53.126;6.878;2022-12-11T15:39:44;1.70;99.90
52103;DHT22;38101;53.126;6.878;2022-12-11T15:42:13;1.70;99.90
52103;DHT22;38101;53.126;6.878;2022-12-11T15:44:40;1.70;99.90
52103;DHT22;38101;53.126;6.878;2022-12-11T15:47:13;1.70;99.90
52103;DHT22;38101;53.126;6.878;2022-12-11T15:49:40;1.70;99.90
52103;DHT22;38101;53.126;6.878;2022-12-11T15:52:06;1.70;99.90
52103;DHT22;38101;53.126;6.878;2022-12-11T15:54:33;1.70;99.90
52103;DHT22;38101;53.126;6.878;2022-12-11T15:57:01;1.70;99.90
52103;DHT22;38101;53.126;6.878;2022-12-11T15:59:28;1.70;99.90
52103;DHT22;38101;53.126;6.878;2022-12-11T16:01:53;1.70;99.90
52103;DHT22;38101;53.126;6.878;2022-12-11T16:04:19;1.70;99.90
52103;DHT22;38101;53.126;6.878;2022-12-11T16:06:45;1.70;99.90
52103;DHT22;38101;53.126;6.878;2022-12-11T16:09:11;1.70;99.90
52103;DHT22;38101;53.126;6.878;2022-12-11T16:11:37;1.70;99.90
52103;DHT22;38101;53.126;6.878;2022-12-11T16:14:03;1.70;99.90
52103;DHT22;38101;53.126;6.878;2022-12-11T16:16:30;1.70;99.90
52103;DHT22;38101;53.126;6.878;2022-12-11T16:18:56;1.70;99.90
52103;DHT22;38101;53.126;6.878;2022-12-11T16:21:21;1.70;99.90
52103;DHT22;38101;53.126;6.878;2022-12-11T16:23:47;1.70;99.90
52103;DHT22;38101;53.126;6.878;2022-12-11T16:26:13;1.70;99.90
52103;DHT22;38101;53.126;6.878;2022-12-11T16:28:40;1.70;99.90
52103;DHT22;38101;53.126;6.878;2022-12-11T16:31:14;1.70;99.90
52103;DHT22;38101;53.126;6.878;2022-12-11T16:33:42;1.70;99.90
52103;DHT22;38101;53.126;6.878;2022-12-11T16:36:15;1.70;99.90
52103;DHT22;38101;53.126;6.878;2022-12-11T16:38:44;1.70;99.90
52103;DHT22;38101;53.126;6.878;2022-12-11T16:41:10;1.70;99.90
52103;DHT22;38101;53.126;6.878;2022-12-11T16:43:36;1.70;99.90
52103;DHT22;38101;53.126;6.878;2022-12-11T16:46:02;1.70;99.90
52103;DHT22;38101;53.126;6.878;2022-12-11T16:48:27;1.70;99.90
52103;DHT22;38101;53.126;6.878;2022-12-11T16:50:53;1.70;99.90
52103;DHT22;38101;53.126;6.878;2022-12-11T16:53:20;1.70;99.90
52103;DHT22;38101;53.126;6.878;2022-12-11T16:55:46;1.70;99.90
52103;DHT22;38101;53.126;6.878;2022-12-11T16:58:12;1.70;99.90
52103;DHT22;38101;53.126;6.878;2022-12-11T17:00:45;1.70;99.90
52103;DHT22;38101;53.126;6.878;2022-12-11T17:03:12;1.70;99.90
52103;DHT22;38101;53.126;6.878;2022-12-11T17:05:39;1.70;99.90
52103;DHT22;38101;53.126;6.878;2022-12-11T17:08:05;1.70;99.90
52103;DHT22;38101;53.126;6.878;2022-12-11T17:10:31;1.70;99.90
52103;DHT22;38101;53.126;6.878;2022-12-11T17:12:57;1.70;99.90
52103;DHT22;38101;53.126;6.878;2022-12-11T17:15:22;1.70;99.90
52103;DHT22;38101;53.126;6.878;2022-12-11T17:17:48;1.70;99.90
52103;DHT22;38101;53.126;6.878;2022-12-11T17:20:14;1.70;99.90
52103;DHT22;38101;53.126;6.878;2022-12-11T17:22:40;1.70;99.90
52103;DHT22;38101;53.126;6.878;2022-12-11T17:25:06;1.70;99.90
52103;DHT22;38101;53.126;6.878;2022-12-11T17:27:32;1.70;99.90
52103;DHT22;38101;53.126;6.878;2022-12-11T17:29:58;1.70;99.90
52103;DHT22;38101;53.126;6.878;2022-12-11T17:32:24;1.70;99.90
52103;DHT22;38101;53.126;6.878;2022-12-11T17:34:50;1.70;99.90